Time;durP1;ratioP1;P1;durP2;ratioP2;P2;SDS_P1;SDS_P2;PMS_P1;PMS_P2;Temp;Humidity;BMP_temperature;BMP_pressure;BME280_temperature;BME280_humidity;BME280_pressure;Samples;Min_cycle;Max_cycle;Signal;HPM_P1;HPM_P2
2023/04/17 00:02:14;;;;;;;18.87;8.57;;;8.20;99.90;;;;;;5073043;28;20550;-40
2023/04/17 00:04:39;;;;;;;19.27;8.77;;;8.20;99.90;;;;;;5071931;28;20093;-40
2023/04/17 00:07:06;;;;;;;21.33;9.03;;;8.20;99.90;;;;;;5076123;28;20044;-40
2023/04/17 00:09:32;;;;;;;19.63;8.68;;;8.20;99.90;;;;;;5075369;28;20048;-40
2023/04/17 00:11:58;;;;;;;19.77;8.53;;;8.20;99.90;;;;;;5075223;28;20052;-40
2023/04/17 00:14:24;;;;;;;20.37;8.67;;;8.20;99.90;;;;;;5076654;28;20088;-39
2023/04/17 00:16:51;;;;;;;18.73;8.70;;;8.20;99.90;;;;;;5076332;28;20365;-40
2023/04/17 00:19:16;;;;;;;21.15;9.38;;;8.20;99.90;;;;;;5076165;28;20052;-40
2023/04/17 00:21:42;;;;;;;19.53;9.67;;;8.20;99.90;;;;;;5076070;28;20390;-40
2023/04/17 00:24:08;;;;;;;21.13;9.37;;;8.20;99.90;;;;;;5076317;28;20098;-40
2023/04/17 00:26:33;;;;;;;19.03;9.10;;;8.20;99.90;;;;;;5075943;28;20045;-40
2023/04/17 00:29:02;;;;;;;19.50;8.60;;;8.20;99.90;;;;;;5075214;28;20044;-40
2023/04/17 00:31:28;;;;;;;21.92;9.07;;;8.20;99.90;;;;;;5076435;28;20102;-40
2023/04/17 00:33:54;;;;;;;24.57;9.97;;;8.20;99.90;;;;;;5074824;28;20053;-40
2023/04/17 00:36:19;;;;;;;24.07;10.20;;;8.20;99.90;;;;;;5075834;28;20553;-40
2023/04/17 00:38:45;;;;;;;22.70;8.67;;;8.20;99.90;;;;;;5075821;28;20056;-41
2023/04/17 00:41:10;;;;;;;25.30;10.33;;;8.20;99.90;;;;;;5074599;28;20052;-40
2023/04/17 00:43:37;;;;;;;22.60;10.53;;;8.20;99.90;;;;;;5074897;28;20475;-40
2023/04/17 00:46:04;;;;;;;20.63;9.38;;;8.20;99.90;;;;;;5076076;28;20053;-40
2023/04/17 00:48:30;;;;;;;23.52;9.63;;;8.20;99.90;;;;;;5075812;28;20136;-40
2023/04/17 00:51:00;;;;;;;20.80;8.88;;;8.20;99.90;;;;;;5075554;28;20044;-40
2023/04/17 00:53:27;;;;;;;22.08;9.23;;;8.20;99.90;;;;;;5074597;28;20048;-41
2023/04/17 00:55:54;;;;;;;19.83;8.60;;;8.10;99.90;;;;;;5074601;28;20053;-40
2023/04/17 00:58:20;;;;;;;;;;;8.10;99.90;;;;;;5075052;28;20048;-40
2023/04/17 01:00:47;;;;;;;23.85;10.57;;;8.10;99.90;;;;;;5074571;28;20015;-40
2023/04/17 01:03:13;;;;;;;;;;;8.10;99.90;;;;;;5076200;28;20482;-40
2023/04/17 01:05:40;;;;;;;24.55;8.88;;;8.10;99.90;;;;;;5091153;28;19982;-40
2023/04/17 01:08:06;;;;;;;21.90;9.93;;;8.10;99.90;;;;;;5075299;28;20507;-40
2023/04/17 01:10:31;;;;;;;22.07;9.57;;;8.10;99.90;;;;;;5075215;28;20169;-40
2023/04/17 01:13:05;;;;;;;24.90;9.03;;;8.00;99.90;;;;;;5074545;28;20291;-40
2023/04/17 01:15:31;;;;;;;21.73;9.55;;;8.00;99.90;;;;;;5074052;28;20048;-40
2023/04/17 01:17:57;;;;;;;26.50;10.50;;;8.00;99.90;;;;;;5073601;28;20060;-40
2023/04/17 01:20:28;;;;;;;23.15;9.80;;;8.00;99.90;;;;;;5075248;28;20044;-40
2023/04/17 01:22:54;;;;;;;22.20;9.10;;;8.00;99.90;;;;;;5074044;28;20098;-40
2023/04/17 01:25:20;;;;;;;21.35;9.18;;;7.90;99.90;;;;;;5074010;28;20052;-39
2023/04/17 01:27:46;;;;;;;23.53;9.87;;;8.00;99.90;;;;;;5075038;28;20544;-40
2023/04/17 01:30:12;;;;;;;20.60;9.73;;;8.00;99.90;;;;;;5074938;28;20079;-40
2023/04/17 01:32:38;;;;;;;21.85;9.07;;;7.90;99.90;;;;;;5073591;28;20092;-40
2023/04/17 01:35:04;;;;;;;24.70;9.83;;;7.90;99.90;;;;;;5073869;28;20153;-40
2023/04/17 01:37:30;;;;;;;24.20;9.68;;;7.90;99.90;;;;;;5073685;28;20088;-40
2023/04/17 01:39:57;;;;;;;20.83;8.83;;;7.90;99.90;;;;;;5074656;28;20074;-40
2023/04/17 01:42:23;;;;;;;21.85;8.82;;;7.90;99.90;;;;;;5073802;28;20464;-40
2023/04/17 01:44:49;;;;;;;22.03;9.23;;;7.90;99.90;;;;;;5074582;28;20083;-40
2023/04/17 01:47:14;;;;;;;20.77;9.60;;;7.90;99.90;;;;;;5074528;28;20117;-40
2023/04/17 01:49:40;;;;;;;23.70;10.30;;;7.90;99.90;;;;;;5074398;28;20045;-40
2023/04/17 01:52:06;;;;;;;21.93;9.07;;;7.90;99.90;;;;;;5074200;28;20440;-39
2023/04/17 01:54:32;;;;;;;21.47;9.30;;;7.90;99.90;;;;;;5073282;28;20044;-40
2023/04/17 01:56:57;;;;;;;22.13;9.93;;;7.90;99.90;;;;;;5073456;28;20052;-41
2023/04/17 01:59:23;;;;;;;19.73;8.37;;;7.90;99.90;;;;;;5074286;28;20052;-40
2023/04/17 02:01:50;;;;;;;21.50;8.37;;;7.90;99.90;;;;;;5074310;28;20045;-39
2023/04/17 02:04:16;;;;;;;22.55;8.57;;;7.80;99.90;;;;;;5074150;28;20113;-39
2023/04/17 02:06:41;;;;;;;19.88;9.10;;;7.80;99.90;;;;;;5073174;28;20048;-40
2023/04/17 02:09:07;;;;;;;21.50;8.77;;;7.80;99.90;;;;;;5074188;28;20055;-40
2023/04/17 02:11:33;;;;;;;22.03;8.97;;;7.80;99.90;;;;;;5072862;28;20067;-40
2023/04/17 02:13:59;;;;;;;22.90;9.30;;;7.80;99.90;;;;;;5073143;28;20063;-40
2023/04/17 02:16:25;;;;;;;20.58;9.38;;;7.80;99.90;;;;;;5074115;28;20052;-40
2023/04/17 02:18:51;;;;;;;22.90;9.93;;;7.80;99.90;;;;;;5073027;28;20044;-41
2023/04/17 02:21:16;;;;;;;24.85;9.25;;;7.80;99.90;;;;;;5073981;28;20128;-40
2023/04/17 02:23:42;;;;;;;21.60;8.27;;;7.80;99.90;;;;;;5072864;28;20090;-40
2023/04/17 02:26:08;;;;;;;20.33;8.57;;;7.80;99.90;;;;;;5073975;28;20106;-40
2023/04/17 02:28:34;;;;;;;19.23;8.23;;;7.80;99.90;;;;;;5072232;28;20278;-40
2023/04/17 02:30:59;;;;;;;16.73;7.73;;;7.80;99.90;;;;;;5073830;28;20059;-40
2023/04/17 02:33:25;;;;;;;20.97;8.17;;;7.80;99.90;;;;;;5073918;28;20064;-40
2023/04/17 02:35:51;;;;;;;23.40;9.35;;;7.80;99.90;;;;;;5072541;28;20063;-40
2023/04/17 02:38:17;;;;;;;20.77;8.67;;;7.80;99.90;;;;;;5073817;28;20041;-40
2023/04/17 02:40:43;;;;;;;21.23;8.50;;;7.80;99.90;;;;;;5073692;28;20044;-40
2023/04/17 02:43:08;;;;;;;21.50;8.67;;;7.80;99.90;;;;;;5073850;28;20098;-39
2023/04/17 02:45:34;;;;;;;19.00;8.47;;;7.80;99.90;;;;;;5073758;28;20377;-40
2023/04/17 02:48:00;;;;;;;21.37;8.47;;;7.80;99.90;;;;;;5073703;28;20194;-40
2023/04/17 02:50:26;;;;;;;18.30;7.70;;;7.70;99.90;;;;;;5073352;28;20048;-40
2023/04/17 02:52:52;;;;;;;15.97;7.23;;;7.70;99.90;;;;;;5073701;28;20044;-40
2023/04/17 02:55:18;;;;;;;17.83;7.60;;;7.80;99.90;;;;;;5072477;28;20399;-40
2023/04/17 02:57:43;;;;;;;17.17;7.63;;;7.70;99.90;;;;;;5073048;28;20109;-40
2023/04/17 03:00:13;;;;;;;20.50;8.23;;;7.70;99.90;;;;;;5073460;28;20049;-40
2023/04/17 03:02:39;;;;;;;17.23;7.45;;;7.70;99.90;;;;;;5072455;28;20055;-40
2023/04/17 03:05:05;;;;;;;20.73;7.85;;;7.70;99.90;;;;;;5072473;28;20041;-40
2023/04/17 03:07:31;;;;;;;;;;;7.70;99.90;;;;;;5074367;28;20053;-40
2023/04/17 03:09:57;;;;;;;22.13;8.23;;;7.70;99.90;;;;;;5073314;28;19982;-40
2023/04/17 03:12:23;;;;;;;18.85;8.05;;;7.70;99.90;;;;;;5072522;28;20053;-40
2023/04/17 03:14:50;;;;;;;21.10;8.75;;;7.70;99.90;;;;;;5072485;28;20053;-40
2023/04/17 03:17:16;;;;;;;21.33;8.43;;;7.60;99.90;;;;;;5073228;28;20100;-40
2023/04/17 03:19:41;;;;;;;22.83;8.93;;;7.60;99.90;;;;;;5073174;28;20480;-40
2023/04/17 03:22:07;;;;;;;17.73;8.70;;;7.60;99.90;;;;;;5072964;28;20055;-40
2023/04/17 03:24:33;;;;;;;18.05;8.98;;;7.70;99.90;;;;;;5073348;28;20052;-40
2023/04/17 03:27:01;;;;;;;15.60;7.53;;;7.60;99.90;;;;;;5073442;28;20131;-40
2023/04/17 03:29:27;;;;;;;14.98;6.97;;;7.60;99.90;;;;;;5073087;28;20059;-40
2023/04/17 03:31:53;;;;;;;17.95;7.07;;;7.60;99.90;;;;;;5088464;28;20133;-40
2023/04/17 03:34:20;;;;;;;16.13;6.93;;;7.60;99.90;;;;;;5072273;28;20083;-40
2023/04/17 03:36:46;;;;;;;13.57;5.97;;;7.60;99.90;;;;;;5072439;28;20435;-40
2023/04/17 03:39:12;;;;;;;14.82;6.55;;;7.60;99.90;;;;;;5073804;28;20079;-40
2023/04/17 03:41:38;;;;;;;15.90;6.40;;;7.60;99.90;;;;;;5077102;28;20068;-40
2023/04/17 03:44:04;;;;;;;18.37;7.93;;;7.60;99.90;;;;;;5076921;28;20051;-40
2023/04/17 03:46:30;;;;;;;17.67;7.38;;;7.70;99.90;;;;;;5076649;28;20040;-40
2023/04/17 03:48:56;;;;;;;19.57;7.70;;;7.60;99.90;;;;;;5076667;28;20049;-40
2023/04/17 03:51:22;;;;;;;18.52;8.43;;;7.70;99.90;;;;;;5076731;28;20302;-40
2023/04/17 03:53:48;;;;;;;20.55;8.63;;;7.60;99.90;;;;;;5076706;28;20487;-40
2023/04/17 03:56:13;;;;;;;21.03;8.80;;;7.60;99.90;;;;;;5076683;28;20054;-40
2023/04/17 03:58:39;;;;;;;24.10;10.13;;;7.60;99.90;;;;;;5076687;28;20123;-40
2023/04/17 04:01:09;;;;;;;25.03;10.77;;;7.60;99.90;;;;;;5075507;28;20048;-40
2023/04/17 04:03:36;;;;;;;18.83;9.32;;;7.60;99.90;;;;;;5075380;28;20098;-40
2023/04/17 04:06:01;;;;;;;19.25;9.20;;;7.70;99.90;;;;;;5076598;28;20059;-40
2023/04/17 04:08:27;;;;;;;17.67;8.63;;;7.70;99.90;;;;;;5076809;28;20040;-40
2023/04/17 04:10:53;;;;;;;20.13;8.50;;;7.70;99.90;;;;;;5076119;28;20044;-40
2023/04/17 04:13:18;;;;;;;19.40;8.93;;;7.70;99.90;;;;;;5075510;28;20048;-40
2023/04/17 04:15:44;;;;;;;15.27;7.83;;;7.60;99.90;;;;;;5076222;28;20052;-40
2023/04/17 04:18:10;;;;;;;17.00;7.97;;;7.70;99.90;;;;;;5075097;28;20133;-40
2023/04/17 04:20:35;;;;;;;19.00;8.47;;;7.70;99.90;;;;;;5075478;28;20060;-40
2023/04/17 04:23:03;;;;;;;19.40;7.87;;;7.70;99.90;;;;;;5076266;28;20045;-40
2023/04/17 04:25:29;;;;;;;18.23;7.32;;;7.70;99.90;;;;;;5075211;28;20054;-40
2023/04/17 04:27:55;;;;;;;16.92;8.52;;;7.60;99.90;;;;;;5076042;28;20055;-40
2023/04/17 04:30:24;;;;;;;15.20;7.27;;;7.60;99.90;;;;;;5076038;28;20044;-40
2023/04/17 04:32:50;;;;;;;15.77;7.35;;;7.70;99.90;;;;;;5076217;28;20055;-40
2023/04/17 04:35:16;;;;;;;17.23;8.00;;;7.70;99.90;;;;;;5076018;28;20059;-40
2023/04/17 04:37:45;;;;;;;19.00;7.73;;;7.70;99.90;;;;;;5076473;28;20404;-40
2023/04/17 04:40:13;;;;;;;19.13;7.88;;;7.70;99.90;;;;;;5075786;28;20749;-40
2023/04/17 04:42:48;;;;;;;16.90;7.85;;;7.70;99.90;;;;;;5075814;28;20052;-40
2023/04/17 04:45:14;;;;;;;19.30;8.27;;;7.70;99.90;;;;;;5075767;28;20087;-40
2023/04/17 04:47:40;;;;;;;16.63;7.53;;;7.70;99.90;;;;;;5076109;28;20051;-40
2023/04/17 04:50:07;;;;;;;19.33;8.55;;;7.70;99.90;;;;;;5075727;28;20055;-40
2023/04/17 04:52:33;;;;;;;22.58;8.85;;;7.70;99.90;;;;;;5073863;28;20055;-40
2023/04/17 04:54:58;;;;;;;20.23;9.13;;;7.70;99.90;;;;;;5075626;28;20056;-40
2023/04/17 04:57:24;;;;;;;23.17;8.53;;;7.70;99.90;;;;;;5075506;28;20045;-40
2023/04/17 04:59:49;;;;;;;20.67;8.83;;;7.70;99.90;;;;;;5075382;28;20044;-40
2023/04/17 05:02:15;;;;;;;21.63;9.57;;;7.70;99.90;;;;;;5075504;28;20077;-40
2023/04/17 05:04:41;;;;;;;24.07;10.33;;;7.70;99.90;;;;;;5074642;28;20040;-40
2023/04/17 05:07:06;;;;;;;22.67;8.90;;;7.70;99.90;;;;;;5075320;28;20494;-40
2023/04/17 05:09:32;;;;;;;22.47;9.73;;;7.70;99.90;;;;;;5075312;28;20052;-39
2023/04/17 05:11:58;;;;;;;23.88;10.75;;;7.80;99.90;;;;;;5075217;28;20049;-40
2023/04/17 05:14:24;;;;;;;21.80;10.10;;;7.80;99.90;;;;;;5073842;28;20045;-40
2023/04/17 05:16:50;;;;;;;19.75;9.13;;;7.80;99.90;;;;;;5074238;28;20064;-40
2023/04/17 05:19:16;;;;;;;23.87;10.07;;;7.80;99.90;;;;;;5075226;28;20390;-40
2023/04/17 05:21:42;;;;;;;19.03;8.70;;;7.80;99.90;;;;;;5075309;28;20472;-40
2023/04/17 05:24:07;;;;;;;20.03;8.87;;;7.80;99.90;;;;;;5074950;28;20446;-40
2023/04/17 05:26:33;;;;;;;19.97;7.90;;;7.90;99.90;;;;;;5075028;28;20044;-40
2023/04/17 05:28:59;;;;;;;18.73;9.23;;;7.90;99.90;;;;;;5090889;28;20049;-40
2023/04/17 05:31:25;;;;;;;19.08;8.70;;;7.90;99.90;;;;;;5074883;28;20067;-40
2023/04/17 05:33:51;;;;;;;19.52;8.82;;;7.90;99.90;;;;;;5074998;28;20139;-40
2023/04/17 05:36:17;;;;;;;19.85;8.93;;;8.00;99.90;;;;;;5074771;28;20079;-39
2023/04/17 05:38:43;;;;;;;19.27;8.87;;;8.00;99.90;;;;;;5074842;28;20099;-40
2023/04/17 05:41:09;;;;;;;18.13;9.00;;;8.00;99.90;;;;;;5073658;28;20372;-40
2023/04/17 05:43:34;;;;;;;19.10;8.93;;;8.00;99.90;;;;;;5074302;28;20380;-40
2023/04/17 05:46:01;;;;;;;19.33;8.73;;;8.10;99.90;;;;;;5074638;28;20051;-40
2023/04/17 05:48:26;;;;;;;19.52;8.23;;;8.10;99.90;;;;;;5074326;28;20516;-39
2023/04/17 05:50:52;;;;;;;16.13;8.37;;;8.10;99.90;;;;;;5074590;28;20127;-40
2023/04/17 05:53:18;;;;;;;16.87;8.37;;;8.20;99.90;;;;;;5074266;28;20403;-39
2023/04/17 05:55:44;;;;;;;19.43;8.77;;;8.20;99.90;;;;;;5073193;28;20045;-40
2023/04/17 05:58:09;;;;;;;16.90;8.13;;;8.20;99.90;;;;;;5074201;28;20516;-41
2023/04/17 06:00:35;;;;;;;18.33;9.13;;;8.30;99.90;;;;;;5073765;28;20059;-40
2023/04/17 06:03:02;;;;;;;17.67;8.70;;;8.30;99.90;;;;;;5074162;28;20059;-40
2023/04/17 06:05:28;;;;;;;17.52;8.52;;;8.30;99.90;;;;;;5074179;28;20044;-40
2023/04/17 06:07:54;;;;;;;18.03;8.67;;;8.30;99.90;;;;;;5074181;28;20118;-40
2023/04/17 06:10:19;;;;;;;15.97;8.37;;;8.30;99.90;;;;;;5074115;28;20080;-40
2023/04/17 06:12:45;;;;;;;17.20;7.97;;;8.30;99.90;;;;;;5073827;28;20108;-40
2023/04/17 06:15:11;;;;;;;15.90;7.80;;;8.40;99.90;;;;;;5074114;28;20083;-40
2023/04/17 06:17:39;;;;;;;14.65;7.88;;;8.40;99.90;;;;;;5074102;28;20059;-40
2023/04/17 06:20:09;;;;;;;14.73;7.78;;;8.40;99.90;;;;;;5074098;28;20048;-40
2023/04/17 06:22:35;;;;;;;16.65;7.75;;;8.40;99.90;;;;;;5074056;28;20098;-40
2023/04/17 06:25:01;;;;;;;16.50;8.50;;;8.50;99.90;;;;;;5072997;28;20109;-40
2023/04/17 06:27:27;;;;;;;15.73;8.80;;;8.50;99.90;;;;;;5073675;28;20036;-40
2023/04/17 06:29:52;;;;;;;13.53;7.47;;;8.50;99.90;;;;;;5073872;28;20502;-40
2023/04/17 06:32:19;;;;;;;15.68;7.70;;;8.60;99.90;;;;;;5074193;28;20098;-40
2023/04/17 06:34:45;;;;;;;16.57;8.47;;;8.60;99.90;;;;;;5073256;28;20438;-40
2023/04/17 06:37:10;;;;;;;16.27;8.63;;;8.70;99.90;;;;;;5073770;28;20051;-40
2023/04/17 06:39:36;;;;;;;15.93;8.03;;;8.70;99.90;;;;;;5073662;28;20044;-40
2023/04/17 06:42:02;;;;;;;16.13;8.47;;;8.70;99.90;;;;;;5073446;28;20051;-40
2023/04/17 06:44:28;;;;;;;17.43;8.60;;;8.70;99.90;;;;;;5074289;28;20044;-40
2023/04/17 06:46:54;;;;;;;16.57;7.77;;;8.80;99.90;;;;;;5072828;28;20045;-40
2023/04/17 06:49:19;;;;;;;16.20;7.78;;;8.80;99.90;;;;;;5073746;28;20549;-40
2023/04/17 06:51:46;;;;;;;16.80;8.53;;;8.80;99.90;;;;;;5073622;28;20044;-40
2023/04/17 06:54:12;;;;;;;16.52;7.95;;;8.80;99.90;;;;;;5073678;28;20408;-40
2023/04/17 06:56:39;;;;;;;14.98;8.35;;;8.90;99.90;;;;;;5073460;28;20051;-40
2023/04/17 06:59:05;;;;;;;16.40;8.45;;;8.90;99.90;;;;;;5073586;28;20498;-40
2023/04/17 07:01:31;;;;;;;15.57;8.10;;;8.90;99.90;;;;;;5073596;28;20094;-40
2023/04/17 07:04:07;;;;;;;14.00;7.70;;;8.90;99.90;;;;;;5073884;28;20123;-47
2023/04/17 07:06:39;;;;;;;14.70;7.72;;;9.00;99.90;;;;;;5073674;28;20052;-47
2023/04/17 07:09:05;;;;;;;14.27;7.40;;;9.10;99.90;;;;;;5073237;28;20060;-49
2023/04/17 07:11:34;;;;;;;13.93;8.40;;;9.10;99.90;;;;;;5072391;28;20042;-48
2023/04/17 07:14:34;;;;;;;16.90;7.72;;;9.10;99.90;;;;;;5072217;28;20059;-48
2023/04/17 07:17:13;;;;;;;13.68;6.70;;;9.10;99.90;;;;;;5072380;28;20059;-48
2023/04/17 07:19:57;;;;;;;15.07;7.55;;;9.20;99.90;;;;;;5077563;28;20036;-40
2023/04/17 07:22:23;;;;;;;15.33;8.17;;;9.20;99.90;;;;;;5076564;28;20426;-39
2023/04/17 07:24:49;;;;;;;12.33;6.83;;;9.30;99.90;;;;;;5077332;28;20052;-39
2023/04/17 07:27:15;;;;;;;16.70;7.60;;;9.40;99.90;;;;;;5077229;28;20041;-40
2023/04/17 07:29:40;;;;;;;14.15;7.28;;;9.40;99.90;;;;;;5077172;28;20075;-40
2023/04/17 07:32:06;;;;;;;13.70;7.57;;;9.40;99.90;;;;;;5076708;28;20056;-39
2023/04/17 07:34:33;;;;;;;16.80;8.43;;;9.50;99.90;;;;;;5077219;28;20053;-40
2023/04/17 07:36:59;;;;;;;15.38;8.07;;;9.60;99.90;;;;;;5077157;28;20388;-40
2023/04/17 07:39:29;;;;;;;18.83;9.35;;;9.70;99.90;;;;;;5077242;28;20054;-40
2023/04/17 07:41:55;;;;;;;14.43;8.73;;;9.70;99.90;;;;;;5076963;28;20507;-39
2023/04/17 07:44:21;;;;;;;17.08;8.32;;;9.80;99.90;;;;;;5075996;28;20095;-40
2023/04/17 07:46:46;;;;;;;15.77;8.33;;;9.90;99.90;;;;;;5076402;28;20089;-39
2023/04/17 07:49:12;;;;;;;16.60;8.67;;;10.00;99.90;;;;;;5076897;28;20045;-39
2023/04/17 07:51:39;;;;;;;18.13;8.90;;;10.10;99.90;;;;;;5076747;28;20092;-39
2023/04/17 07:54:05;;;;;;;13.60;7.88;;;10.20;99.90;;;;;;5076701;28;20053;-39
2023/04/17 07:56:33;;;;;;;15.68;8.48;;;10.20;99.90;;;;;;5076803;28;20052;-39
2023/04/17 07:58:59;;;;;;;14.30;8.68;;;10.20;99.90;;;;;;5076669;28;20052;-39
2023/04/17 08:01:26;;;;;;;13.90;8.38;;;10.20;99.90;;;;;;5076463;28;20044;-39
2023/04/17 08:03:53;;;;;;;14.30;8.38;;;10.20;99.90;;;;;;5076655;28;20123;-39
2023/04/17 08:06:19;;;;;;;18.50;9.85;;;10.40;99.90;;;;;;5076547;28;20055;-39
2023/04/17 08:08:46;;;;;;;16.85;9.40;;;10.50;99.90;;;;;;5076547;28;20415;-39
2023/04/17 08:11:15;;;;;;;17.73;9.98;;;10.60;99.90;;;;;;5076268;28;20048;-39
2023/04/17 08:13:40;;;;;;;18.90;9.38;;;10.70;99.90;;;;;;5076190;28;20093;-39
2023/04/17 08:16:07;;;;;;;13.07;8.00;;;10.80;99.90;;;;;;5076455;28;20130;-39
2023/04/17 08:18:36;;;;;;;15.00;8.13;;;10.80;99.90;;;;;;5076395;28;20048;-39
2023/04/17 08:21:02;;;;;;;14.30;7.80;;;10.80;99.90;;;;;;5075511;28;20430;-40
2023/04/17 08:23:28;;;;;;;11.88;7.75;;;10.90;99.90;;;;;;5076357;28;20086;-39
2023/04/17 08:25:54;;;;;;;15.30;8.65;;;10.90;99.90;;;;;;5075061;28;20080;-40
2023/04/17 08:28:20;;;;;;;12.10;7.57;;;10.90;99.90;;;;;;5075865;28;20523;-40
2023/04/17 08:30:46;;;;;;;12.80;7.20;;;10.90;99.90;;;;;;5075055;28;20494;-40
2023/04/17 08:33:12;;;;;;;14.53;7.33;;;11.00;99.90;;;;;;5076183;28;20052;-40
2023/04/17 08:35:38;;;;;;;12.32;7.35;;;11.00;99.90;;;;;;5076332;28;20052;-40
2023/04/17 08:38:04;;;;;;;14.37;7.50;;;11.10;99.90;;;;;;5076061;28;20045;-40
2023/04/17 08:40:30;;;;;;;13.53;7.13;;;11.00;99.90;;;;;;5076083;28;20665;-40
2023/04/17 08:42:57;;;;;;;14.93;7.53;;;11.00;99.90;;;;;;5075746;28;20410;-40
2023/04/17 08:45:23;;;;;;;13.88;8.05;;;11.00;99.90;;;;;;5075877;28;20488;-39
2023/04/17 08:47:49;;;;;;;13.52;8.18;;;10.90;99.90;;;;;;5075778;28;20136;-40
2023/04/17 08:50:19;;;;;;;12.13;7.67;;;11.00;99.90;;;;;;5074638;28;20131;-40
2023/04/17 08:52:50;;;;;;;13.13;6.95;;;10.90;99.90;;;;;;5075925;28;20291;-40
2023/04/17 08:55:23;;;;;;;13.63;7.25;;;10.90;99.90;;;;;;5075659;28;20384;-40
2023/04/17 08:58:03;;;;;;;11.13;6.32;;;10.90;99.90;;;;;;5074982;28;20056;-40
2023/04/17 09:00:31;;;;;;;13.27;6.82;;;10.80;99.90;;;;;;5074741;28;20051;-39
2023/04/17 09:02:58;;;;;;;12.45;6.95;;;10.90;99.90;;;;;;5075574;28;20484;-39
2023/04/17 09:05:25;;;;;;;12.63;6.40;;;10.90;99.90;;;;;;5074495;28;20102;-40
2023/04/17 09:08:25;;;;;;;10.70;6.10;;;10.90;99.90;;;;;;5075266;28;20449;-40
2023/04/17 09:10:52;;;;;;;11.43;6.22;;;10.90;99.90;;;;;;5075667;28;20052;-40
2023/04/17 09:13:19;;;;;;;11.35;6.63;;;10.90;99.90;;;;;;5075493;28;20048;-40
2023/04/17 09:16:01;;;;;;;11.18;6.32;;;10.90;99.90;;;;;;5075172;28;20052;-39
2023/04/17 09:18:29;;;;;;;12.73;6.43;;;11.00;99.90;;;;;;5075078;28;20045;-39
2023/04/17 09:20:58;;;;;;;12.48;6.68;;;11.00;99.90;;;;;;5075788;28;20461;-40
2023/04/17 09:23:29;;;;;;;12.38;6.70;;;11.00;99.90;;;;;;5075034;28;20040;-39
2023/04/17 09:26:12;;;;;;;14.38;7.28;;;11.10;99.90;;;;;;5074875;28;20491;-40
2023/04/17 09:28:39;;;;;;;14.05;7.00;;;11.10;99.90;;;;;;5074797;28;20055;-40
2023/04/17 09:31:06;;;;;;;;;;;11.20;99.90;;;;;;5075254;28;20044;-40
2023/04/17 09:33:31;;;;;;;14.10;7.47;;;11.20;99.90;;;;;;5075089;28;19921;-40
2023/04/17 09:36:20;;;;;;;15.15;7.60;;;11.20;99.90;;;;;;5074831;28;20514;-40
2023/04/17 09:38:46;;;;;;;13.50;7.28;;;11.30;99.90;;;;;;5074518;28;20083;-40
2023/04/17 09:41:26;;;;;;;13.93;7.50;;;11.30;99.90;;;;;;5074632;28;20460;-40
2023/04/17 09:44:00;;;;;;;14.30;7.63;;;11.30;99.90;;;;;;5074984;28;20312;-40
2023/04/17 09:46:36;;;;;;;14.27;7.65;;;11.40;99.90;;;;;;5074656;28;20372;-40
2023/04/17 09:49:14;;;;;;;13.82;7.88;;;11.40;99.90;;;;;;5074538;28;20044;-41
2023/04/17 09:51:41;;;;;;;13.20;8.02;;;11.50;99.90;;;;;;5073152;28;20484;-41
2023/04/17 09:54:09;;;;;;;12.73;6.82;;;11.70;99.90;;;;;;5073535;28;20440;-41
2023/04/17 09:56:36;;;;;;;13.43;6.93;;;11.90;99.90;;;;;;5056532;28;20495;-42
2023/04/17 09:59:06;;;;;;;13.48;7.13;;;12.10;99.90;;;;;;5056694;28;20133;-41
2023/04/17 10:01:33;;;;;;;14.05;7.70;;;12.20;99.90;;;;;;5073299;28;20399;-41
2023/04/17 10:04:00;;;;;;;14.82;7.68;;;12.40;99.90;;;;;;5073167;28;20045;-41
2023/04/17 10:06:26;;;;;;;13.50;6.90;;;12.60;99.90;;;;;;5073069;28;20139;-41
2023/04/17 10:08:53;;;;;;;14.68;7.20;;;12.80;99.90;;;;;;5072988;28;20123;-41
2023/04/17 10:11:23;;;;;;;13.18;7.03;;;13.10;99.90;;;;;;5056335;28;20538;-40
2023/04/17 10:14:10;;;;;;;11.75;6.65;;;13.30;99.90;;;;;;5074090;28;20091;-39
2023/04/17 10:16:43;;;;;;;14.90;8.13;;;13.30;99.90;;;;;;5073055;28;20139;-41
2023/04/17 10:19:29;;;;;;;18.85;8.43;;;13.40;99.90;;;;;;5073397;28;20049;-40
2023/04/17 10:22:19;;;;;;;14.70;8.02;;;13.40;99.90;;;;;;5073986;28;20395;-40
2023/04/17 10:24:46;;;;;;;14.43;7.50;;;13.50;99.90;;;;;;5072920;28;20365;-40
2023/04/17 10:27:26;;;;;;;13.93;7.35;;;13.50;99.90;;;;;;5072833;28;20395;-40
2023/04/17 10:30:03;;;;;;;14.80;7.93;;;13.60;99.90;;;;;;5073887;28;20044;-40
2023/04/17 10:32:29;;;;;;;13.50;8.00;;;13.70;99.90;;;;;;5073656;28;20048;-39
2023/04/17 10:35:00;;;;;;;13.15;8.40;;;13.70;99.90;;;;;;5072684;28;20063;-39
2023/04/17 10:37:51;;;;;;;13.50;7.32;;;13.70;99.90;;;;;;5072678;28;20475;-42
2023/04/17 10:40:20;;;;;;;13.27;7.28;;;13.70;99.90;;;;;;5073846;28;20044;-39
2023/04/17 10:43:07;;;;;;;13.00;6.85;;;13.60;99.90;;;;;;5072767;28;20084;-39
2023/04/17 10:45:52;;;;;;;;;;;13.50;99.90;;;;;;5074085;28;20044;-39
2023/04/17 10:48:48;;;;;;;14.45;7.63;;;13.40;99.90;;;;;;5073521;28;19966;-39
2023/04/17 10:51:23;;;;;;;15.43;7.85;;;13.30;99.90;;;;;;5073577;28;20471;-39
2023/04/17 10:53:50;;;;;;;15.43;8.05;;;13.40;99.90;;;;;;5073669;28;20563;-39
2023/04/17 10:56:41;;;;;;;14.70;7.30;;;13.40;99.90;;;;;;5073375;28;20048;-39
2023/04/17 10:59:12;;;;;;;15.45;8.48;;;13.50;99.90;;;;;;5072804;28;20086;-40
2023/04/17 11:01:46;;;;;;;13.10;7.40;;;13.60;99.90;;;;;;5073564;28;20052;-39
2023/04/17 11:04:21;;;;;;;14.63;7.15;;;13.80;99.90;;;;;;5073557;28;20049;-39
2023/04/17 11:06:47;;;;;;;13.43;7.40;;;13.80;99.90;;;;;;5072558;28;20056;-39
2023/04/17 11:09:13;;;;;;;15.45;7.47;;;13.90;99.90;;;;;;5073597;28;20131;-39
2023/04/17 11:11:40;;;;;;;;;;;14.10;99.90;;;;;;5073994;28;20043;-39
2023/04/17 11:14:15;;;;;;;15.65;8.57;;;14.20;99.90;;;;;;5072350;28;19924;-39
2023/04/17 11:16:42;;;;;;;12.90;7.50;;;14.30;99.90;;;;;;5073506;28;20051;-38
2023/04/17 11:19:15;;;;;;;23.52;11.73;;;14.40;99.90;;;;;;5073295;28;20048;-39
2023/04/17 11:21:42;;;;;;;15.18;8.27;;;14.50;99.90;;;;;;5072316;28;20044;-39
2023/04/17 11:24:08;;;;;;;14.68;8.43;;;14.60;99.90;;;;;;5073287;28;20178;-39
2023/04/17 11:26:47;;;;;;;14.40;7.93;;;14.60;99.90;;;;;;5073553;28;20159;-39
2023/04/17 11:29:17;;;;;;;12.52;8.00;;;14.70;99.90;;;;;;5072291;28;20554;-39
2023/04/17 11:31:45;;;;;;;15.10;7.57;;;14.70;99.90;;;;;;5073037;28;20399;-40
2023/04/17 11:34:12;;;;;;;14.52;8.63;;;14.70;99.90;;;;;;5073443;28;20067;-39
2023/04/17 11:36:37;;;;;;;15.90;8.07;;;14.70;99.90;;;;;;5055724;28;20514;-39
2023/04/17 11:39:03;;;;;;;13.57;7.80;;;14.70;99.90;;;;;;5073284;28;20053;-39
2023/04/17 11:41:41;;;;;;;16.48;8.60;;;14.80;99.90;;;;;;5072159;28;20056;-39
2023/04/17 11:44:14;;;;;;;14.52;7.85;;;14.70;99.90;;;;;;5073013;28;20502;-38
2023/04/17 11:46:39;;;;;;;13.93;7.97;;;14.70;99.90;;;;;;5073182;28;20106;-39
2023/04/17 11:49:06;;;;;;;12.27;7.63;;;14.60;99.90;;;;;;5073333;28;20503;-39
2023/04/17 11:51:32;;;;;;;12.85;7.85;;;14.70;99.90;;;;;;5073082;28;20426;-39
2023/04/17 11:53:58;;;;;;;13.55;8.20;;;14.70;99.90;;;;;;5073022;28;20044;-38
2023/04/17 11:56:28;;;;;;;14.02;8.25;;;14.80;99.90;;;;;;5072382;28;20459;-39
2023/04/17 11:58:56;;;;;;;14.20;7.97;;;14.80;99.90;;;;;;5071903;28;20117;-39
2023/04/17 12:01:25;;;;;;;15.30;8.05;;;14.90;99.90;;;;;;5075444;28;20445;-39
2023/04/17 12:03:55;;;;;;;13.25;8.18;;;15.00;99.90;;;;;;5076659;28;20127;-39
2023/04/17 12:06:21;;;;;;;14.35;7.85;;;15.10;99.90;;;;;;5075532;28;20048;-39
2023/04/17 12:08:54;;;;;;;15.57;7.65;;;15.20;99.90;;;;;;5076563;28;20045;-40
2023/04/17 12:11:24;;;;;;;13.50;8.05;;;15.30;99.90;;;;;;5076442;28;20098;-39
2023/04/17 12:13:51;;;;;;;12.38;7.25;;;15.40;99.90;;;;;;5076506;28;20148;-39
2023/04/17 12:16:16;;;;;;;12.88;7.38;;;15.30;99.90;;;;;;5076041;28;20052;-39
2023/04/17 12:18:43;;;;;;;13.75;7.70;;;15.30;99.90;;;;;;5075448;28;20048;-38
2023/04/17 12:21:08;;;;;;;14.73;7.93;;;15.30;99.90;;;;;;5076269;28;20127;-39
2023/04/17 12:23:34;;;;;;;14.57;7.95;;;15.30;99.90;;;;;;5076476;28;20083;-39
2023/04/17 12:26:00;;;;;;;16.65;8.50;;;15.40;99.90;;;;;;5076200;28;20105;-39
2023/04/17 12:28:25;;;;;;;11.87;7.17;;;15.40;99.90;;;;;;5076231;28;20045;-39
2023/04/17 12:30:51;;;;;;;13.53;7.80;;;15.40;99.90;;;;;;5074858;28;20382;-38
2023/04/17 12:33:17;;;;;;;12.75;7.65;;;15.40;99.90;;;;;;5074654;28;20117;-39
2023/04/17 12:35:42;;;;;;;14.02;7.32;;;15.40;99.90;;;;;;5076024;28;20559;-39
2023/04/17 12:38:08;;;;;;;15.05;8.85;;;15.40;99.90;;;;;;5075923;28;20051;-39
2023/04/17 12:40:34;;;;;;;13.73;7.57;;;15.40;99.90;;;;;;5075820;28;20071;-39
2023/04/17 12:42:59;;;;;;;10.60;6.63;;;15.50;99.90;;;;;;5076013;28;20621;-39
2023/04/17 12:45:25;;;;;;;13.10;7.88;;;15.50;99.90;;;;;;5075194;28;20290;-39
2023/04/17 12:47:51;;;;;;;12.73;7.50;;;15.50;99.90;;;;;;5075931;28;20090;-39